Marietta, South Carolina
Current Conditions -  °F | °C
As of 10:53 PM on Wednesday 26 Nov 2014 (Local Time) from KGMU Reporting Station
Clear Clear  
Wind Chill: 41°   Ceiling: Unl
Heat Index: 44°   Visibility: 10mi
Dew Point: 25°   Wind: 6mph
Humidity: 47%   Direction: 250°WSW
Pressure: 30.03"   Gusts: NA
Location:  35.02°N, 82.5°W
Report Text: KGMU 270353Z AUTO 25005KT 10SM CLR 07/M04 A3003 RMK AO2 SLP170 T00671039
Loading
Personal Weather Stations






























Interactive Weather Map New forecast layout! Learn more

10-Day Weather Forecast

Advertisements
Track Severe Weather on mobile